sensor_id;sensor_type;location;lat;lon;timestamp;pressure;altitude;pressure_sealevel;temperature;humidity
32330;BME280;18807;52.434;13.238;2023-06-22T00:00:52;75314.56;;;-142.05;92.04
32330;BME280;18807;52.434;13.238;2023-06-22T00:08:26;75326.81;;;-142.05;91.59
32330;BME280;18807;52.434;13.238;2023-06-22T00:16:01;75343.13;;;-142.05;88.88
32330;BME280;18807;52.434;13.238;2023-06-22T00:23:36;75357.41;;;-142.05;88.78
32330;BME280;18807;52.434;13.238;2023-06-22T00:31:11;75367.63;;;-142.05;90.08
32330;BME280;18807;52.434;13.238;2023-06-22T00:38:45;75371.69;;;-142.05;91.19
32330;BME280;18807;52.434;13.238;2023-06-22T00:46:21;75381.91;;;-142.05;93.55
32330;BME280;18807;52.434;13.238;2023-06-22T00:53:56;75392.09;;;-142.05;93.52
32330;BME280;18807;52.434;13.238;2023-06-22T01:01:32;75400.25;;;-142.05;93.48
32330;BME280;18807;52.434;13.238;2023-06-22T01:09:12;75414.56;;;-142.05;94.61
32330;BME280;18807;52.434;13.238;2023-06-22T01:16:51;75416.59;;;-142.05;96.37
32330;BME280;18807;52.434;13.238;2023-06-22T01:24:32;75424.75;;;-142.05;97.24
32330;BME280;18807;52.434;13.238;2023-06-22T01:32:10;75428.84;;;-142.05;97.48
32330;BME280;18807;52.434;13.238;2023-06-22T01:39:45;75447.19;;;-142.05;98.44
32330;BME280;18807;52.434;13.238;2023-06-22T01:47:21;75451.28;;;-142.05;100.00
32330;BME280;18807;52.434;13.238;2023-06-22T01:54:56;75457.41;;;-142.05;100.00
32330;BME280;18807;52.434;13.238;2023-06-22T02:02:39;75469.66;;;-142.05;100.00
32330;BME280;18807;52.434;13.238;2023-06-22T02:10:19;75477.81;;;-142.05;100.00
32330;BME280;18807;52.434;13.238;2023-06-22T02:17:56;75496.16;;;-142.05;100.00
32330;BME280;18807;52.434;13.238;2023-06-22T02:25:30;75504.34;;;-142.05;100.00
32330;BME280;18807;52.434;13.238;2023-06-22T02:33:05;75504.34;;;-142.05;100.00
32330;BME280;18807;52.434;13.238;2023-06-22T02:40:40;75504.34;;;-142.05;100.00
32330;BME280;18807;52.434;13.238;2023-06-22T02:48:15;75514.53;;;-142.05;100.00
32330;BME280;18807;52.434;13.238;2023-06-22T02:55:49;75510.47;;;-142.05;100.00
32330;BME280;18807;52.434;13.238;2023-06-22T03:03:42;75502.28;;;-142.05;100.00
32330;BME280;18807;52.434;13.238;2023-06-22T03:11:16;75500.25;;;-142.05;100.00
32330;BME280;18807;52.434;13.238;2023-06-22T03:18:51;75502.28;;;-142.05;100.00
32330;BME280;18807;52.434;13.238;2023-06-22T03:26:26;75506.38;;;-142.05;100.00
32330;BME280;18807;52.434;13.238;2023-06-22T03:34:02;75516.56;;;-142.05;100.00
32330;BME280;18807;52.434;13.238;2023-06-22T03:41:35;75506.38;;;-142.05;100.00
32330;BME280;18807;52.434;13.238;2023-06-22T03:49:11;75500.25;;;-142.05;100.00
32330;BME280;18807;52.434;13.238;2023-06-22T03:56:45;75490.06;;;-142.05;100.00
32330;BME280;18807;52.434;13.238;2023-06-22T04:04:21;75496.16;;;-142.05;100.00
32330;BME280;18807;52.434;13.238;2023-06-22T04:11:55;75490.06;;;-142.05;100.00
32330;BME280;18807;52.434;13.238;2023-06-22T04:19:30;75485.97;;;-142.05;100.00
32330;BME280;18807;52.434;13.238;2023-06-22T04:27:05;75488.00;;;-142.05;100.00
32330;BME280;18807;52.434;13.238;2023-06-22T04:34:41;75485.97;;;-142.05;100.00
32330;BME280;18807;52.434;13.238;2023-06-22T04:42:15;75481.88;;;-142.05;100.00
32330;BME280;18807;52.434;13.238;2023-06-22T04:49:50;75473.72;;;-142.05;100.00
32330;BME280;18807;52.434;13.238;2023-06-22T04:57:24;75457.41;;;-142.05;100.00
32330;BME280;18807;52.434;13.238;2023-06-22T05:05:07;75434.97;;;-142.05;100.00
32330;BME280;18807;52.434;13.238;2023-06-22T05:12:46;75424.75;;;-142.05;86.42
32330;BME280;18807;52.434;13.238;2023-06-22T05:20:22;75414.56;;;-142.05;81.30
32330;BME280;18807;52.434;13.238;2023-06-22T05:27:58;75396.19;;;-142.05;76.85
32330;BME280;18807;52.434;13.238;2023-06-22T05:35:33;75375.78;;;-142.05;76.35
32330;BME280;18807;52.434;13.238;2023-06-22T05:43:07;75369.66;;;-142.05;75.27
32330;BME280;18807;52.434;13.238;2023-06-22T05:50:43;75359.47;;;-142.05;73.45
32330;BME280;18807;52.434;13.238;2023-06-22T05:58:20;75334.97;;;-142.05;72.98
32330;BME280;18807;52.434;13.238;2023-06-22T06:05:55;75324.78;;;-142.05;72.06
32330;BME280;18807;52.434;13.238;2023-06-22T06:13:29;75288.03;;;-142.05;71.52
32330;BME280;18807;52.434;13.238;2023-06-22T06:21:05;75237.03;;;-142.05;67.92
32330;BME280;18807;52.434;13.238;2023-06-22T06:28:39;75235.00;;;-142.05;68.43
32330;BME280;18807;52.434;13.238;2023-06-22T06:36:15;75177.84;;;-142.05;62.01
32330;BME280;18807;52.434;13.238;2023-06-22T06:43:49;75147.25;;;-142.05;62.69
32330;BME280;18807;52.434;13.238;2023-06-22T06:51:41;75094.19;;;-142.05;55.13
32330;BME280;18807;52.434;13.238;2023-06-22T06:59:15;75053.41;;;-142.05;52.94
32330;BME280;18807;52.434;13.238;2023-06-22T07:06:51;74996.25;;;-142.05;49.48
32330;BME280;18807;52.434;13.238;2023-06-22T07:14:42;74981.97;;;-142.05;51.91
32330;BME280;18807;52.434;13.238;2023-06-22T07:22:18;74955.47;;;-142.05;49.13
32330;BME280;18807;52.434;13.238;2023-06-22T07:29:52;74955.47;;;-142.05;47.84
32330;BME280;18807;52.434;13.238;2023-06-22T07:37:29;74920.78;;;-142.05;45.07
32330;BME280;18807;52.434;13.238;2023-06-22T07:45:04;74892.22;;;-142.05;45.83
32330;BME280;18807;52.434;13.238;2023-06-22T07:52:39;74906.50;;;-142.05;45.71
32330;BME280;18807;52.434;13.238;2023-06-22T08:00:14;74914.66;;;-142.05;45.64
32330;BME280;18807;52.434;13.238;2023-06-22T08:07:50;74900.38;;;-142.05;45.78
32330;BME280;18807;52.434;13.238;2023-06-22T08:15:41;74890.16;;;-142.05;44.95
32330;BME280;18807;52.434;13.238;2023-06-22T08:23:17;74886.09;;;-142.05;43.30
32330;BME280;18807;52.434;13.238;2023-06-22T08:30:51;74875.88;;;-142.05;43.37
32330;BME280;18807;52.434;13.238;2023-06-22T08:38:27;74853.44;;;-142.05;44.03
32330;BME280;18807;52.434;13.238;2023-06-22T08:46:01;74820.81;;;-142.05;43.45
32330;BME280;18807;52.434;13.238;2023-06-22T08:53:37;74777.97;;;-142.05;41.43
32330;BME280;18807;52.434;13.238;2023-06-22T09:01:11;74782.03;;;-142.05;41.19
32330;BME280;18807;52.434;13.238;2023-06-22T09:08:48;74739.19;;;-142.05;40.52
32330;BME280;18807;52.434;13.238;2023-06-22T09:16:22;74724.91;;;-142.05;40.05
32330;BME280;18807;52.434;13.238;2023-06-22T09:23:57;74733.06;;;-142.05;41.32
32330;BME280;18807;52.434;13.238;2023-06-22T09:31:32;74733.06;;;-142.05;42.59
32330;BME280;18807;52.434;13.238;2023-06-22T09:39:07;74712.69;;;-142.05;42.06
32330;BME280;18807;52.434;13.238;2023-06-22T09:46:41;74659.63;;;-142.05;40.95
32330;BME280;18807;52.434;13.238;2023-06-22T09:54:16;74637.19;;;-142.05;41.75
32330;BME280;18807;52.434;13.238;2023-06-22T10:01:50;74633.13;;;-142.05;40.51
32330;BME280;18807;52.434;13.238;2023-06-22T10:09:26;74635.16;;;-142.05;40.77
32330;BME280;18807;52.434;13.238;2023-06-22T10:17:00;74614.75;;;-142.05;40.99
32330;BME280;18807;52.434;13.238;2023-06-22T10:24:35;74576.00;;;-142.05;40.91
32330;BME280;18807;52.434;13.238;2023-06-22T10:32:11;74533.16;;;-142.05;40.70
32330;BME280;18807;52.434;13.238;2023-06-22T10:39:46;74508.66;;;-142.05;40.04
32330;BME280;18807;52.434;13.238;2023-06-22T10:47:20;74527.03;;;-142.05;39.37
32330;BME280;18807;52.434;13.238;2023-06-22T10:54:55;74498.47;;;-142.05;37.90
32330;BME280;18807;52.434;13.238;2023-06-22T11:02:29;74467.88;;;-142.05;40.04
32330;BME280;18807;52.434;13.238;2023-06-22T11:10:07;74439.31;;;-142.05;38.33
32330;BME280;18807;52.434;13.238;2023-06-22T11:17:41;74435.22;;;-142.05;38.21
32330;BME280;18807;52.434;13.238;2023-06-22T11:25:17;74433.19;;;-142.05;37.82
32330;BME280;18807;52.434;13.238;2023-06-22T11:32:51;74449.50;;;-142.05;36.68
32330;BME280;18807;52.434;13.238;2023-06-22T11:40:26;74418.91;;;-142.05;37.78
32330;BME280;18807;52.434;13.238;2023-06-22T11:48:01;74400.56;;;-142.05;37.71
32330;BME280;18807;52.434;13.238;2023-06-22T11:55:36;74394.44;;;-142.05;37.84
32330;BME280;18807;52.434;13.238;2023-06-22T12:03:11;74378.13;;;-142.05;37.14
32330;BME280;18807;52.434;13.238;2023-06-22T12:11:08;74345.47;;;-142.05;37.38
32330;BME280;18807;52.434;13.238;2023-06-22T12:18:42;74343.44;;;-142.05;36.05
32330;BME280;18807;52.434;13.238;2023-06-22T12:26:17;74339.34;;;-142.05;36.30
32330;BME280;18807;52.434;13.238;2023-06-22T12:33:51;74318.97;;;-142.05;37.06
32330;BME280;18807;52.434;13.238;2023-06-22T12:41:26;74292.44;;;-142.05;36.41
32330;BME280;18807;52.434;13.238;2023-06-22T12:49:00;74296.50;;;-142.05;36.02
32330;BME280;18807;52.434;13.238;2023-06-22T12:56:36;74249.59;;;-142.05;35.81
32330;BME280;18807;52.434;13.238;2023-06-22T13:04:10;74227.16;;;-142.05;36.28
32330;BME280;18807;52.434;13.238;2023-06-22T13:11:48;74231.25;;;-142.05;35.51
32330;BME280;18807;52.434;13.238;2023-06-22T13:19:22;74221.03;;;-142.05;36.25
32330;BME280;18807;52.434;13.238;2023-06-22T13:26:58;74208.81;;;-142.05;35.70
32330;BME280;18807;52.434;13.238;2023-06-22T13:34:32;74186.38;;;-142.05;35.24
32330;BME280;18807;52.434;13.238;2023-06-22T13:42:08;74151.69;;;-142.05;35.01
32330;BME280;18807;52.434;13.238;2023-06-22T13:49:41;74143.53;;;-142.05;36.18
32330;BME280;18807;52.434;13.238;2023-06-22T13:57:17;74139.44;;;-142.05;36.43
32330;BME280;18807;52.434;13.238;2023-06-22T14:04:52;74129.25;;;-142.05;35.33
32330;BME280;18807;52.434;13.238;2023-06-22T14:12:28;74123.13;;;-142.05;35.72
32330;BME280;18807;52.434;13.238;2023-06-22T14:20:02;74100.69;;;-142.05;35.33
32330;BME280;18807;52.434;13.238;2023-06-22T14:27:39;74076.22;;;-142.05;35.24
32330;BME280;18807;52.434;13.238;2023-06-22T14:35:13;74057.84;;;-142.05;35.51
32330;BME280;18807;52.434;13.238;2023-06-22T14:42:48;74027.25;;;-142.05;35.77
32330;BME280;18807;52.434;13.238;2023-06-22T14:50:23;74010.94;;;-142.05;35.97
32330;BME280;18807;52.434;13.238;2023-06-22T14:57:58;73966.06;;;-142.05;35.73
32330;BME280;18807;52.434;13.238;2023-06-22T15:05:33;73988.50;;;-142.05;35.21
32330;BME280;18807;52.434;13.238;2023-06-22T15:13:08;73951.78;;;-142.05;35.01
32330;BME280;18807;52.434;13.238;2023-06-22T15:20:43;73966.06;;;-142.05;34.77
32330;BME280;18807;52.434;13.238;2023-06-22T15:28:20;74029.31;;;-142.05;34.99
32330;BME280;18807;52.434;13.238;2023-06-22T15:35:54;73980.34;;;-142.05;36.19
32330;BME280;18807;52.434;13.238;2023-06-22T15:43:30;73931.41;;;-142.05;35.23
32330;BME280;18807;52.434;13.238;2023-06-22T15:51:04;73955.88;;;-142.05;35.42
32330;BME280;18807;52.434;13.238;2023-06-22T15:58:39;73978.31;;;-142.05;35.50
32330;BME280;18807;52.434;13.238;2023-06-22T16:06:13;73935.47;;;-142.05;35.12
32330;BME280;18807;52.434;13.238;2023-06-22T16:13:48;73888.56;;;-142.05;35.80
32330;BME280;18807;52.434;13.238;2023-06-22T16:21:22;73902.84;;;-142.05;35.26
32330;BME280;18807;52.434;13.238;2023-06-22T16:28:57;73919.16;;;-142.05;35.73
32330;BME280;18807;52.434;13.238;2023-06-22T16:36:31;73945.69;;;-142.05;35.98
32330;BME280;18807;52.434;13.238;2023-06-22T16:44:07;73992.59;;;-142.05;36.59
32330;BME280;18807;52.434;13.238;2023-06-22T16:51:41;73996.66;;;-142.05;37.04
32330;BME280;18807;52.434;13.238;2023-06-22T16:59:16;74021.16;;;-142.05;37.31
32330;BME280;18807;52.434;13.238;2023-06-22T17:06:54;73998.72;;;-142.05;37.64
32330;BME280;18807;52.434;13.238;2023-06-22T17:14:31;74017.06;;;-142.05;37.59
32330;BME280;18807;52.434;13.238;2023-06-22T17:22:05;74049.69;;;-142.05;37.94
32330;BME280;18807;52.434;13.238;2023-06-22T17:29:40;74047.66;;;-142.05;38.19
32330;BME280;18807;52.434;13.238;2023-06-22T17:37:14;74057.84;;;-142.05;38.13
32330;BME280;18807;52.434;13.238;2023-06-22T17:44:49;74049.69;;;-142.05;38.46
32330;BME280;18807;52.434;13.238;2023-06-22T17:52:26;74043.59;;;-142.05;38.69
32330;BME280;18807;52.434;13.238;2023-06-22T18:00:02;74043.59;;;-142.05;38.55
32330;BME280;18807;52.434;13.238;2023-06-22T18:07:38;74047.66;;;-142.05;39.48
32330;BME280;18807;52.434;13.238;2023-06-22T18:15:13;74072.13;;;-142.05;39.42
32330;BME280;18807;52.434;13.238;2023-06-22T18:22:48;74088.47;;;-142.05;39.70
32330;BME280;18807;52.434;13.238;2023-06-22T18:30:24;74104.78;;;-142.05;39.84
32330;BME280;18807;52.434;13.238;2023-06-22T18:37:59;74117.00;;;-142.05;40.45
32330;BME280;18807;52.434;13.238;2023-06-22T18:45:36;74108.84;;;-142.05;40.15
32330;BME280;18807;52.434;13.238;2023-06-22T18:53:16;74102.72;;;-142.05;40.22
32330;BME280;18807;52.434;13.238;2023-06-22T19:00:52;74098.66;;;-142.05;40.12
32330;BME280;18807;52.434;13.238;2023-06-22T19:08:27;74131.28;;;-142.05;40.50
32330;BME280;18807;52.434;13.238;2023-06-22T19:16:28;74149.66;;;-142.05;40.58
32330;BME280;18807;52.434;13.238;2023-06-22T19:24:03;74163.94;;;-142.05;40.58
32330;BME280;18807;52.434;13.238;2023-06-22T19:31:42;74168.00;;;-142.05;41.05
32330;BME280;18807;52.434;13.238;2023-06-22T19:39:18;74170.03;;;-142.05;40.80
32330;BME280;18807;52.434;13.238;2023-06-22T19:46:53;74168.00;;;-142.05;40.83
32330;BME280;18807;52.434;13.238;2023-06-22T19:54:27;74170.03;;;-142.05;43.02
32330;BME280;18807;52.434;13.238;2023-06-22T20:02:03;74180.25;;;-142.05;43.13
32330;BME280;18807;52.434;13.238;2023-06-22T20:09:40;74247.56;;;-142.05;46.86
32330;BME280;18807;52.434;13.238;2023-06-22T20:17:17;74357.72;;;-142.05;48.67
32330;BME280;18807;52.434;13.238;2023-06-22T20:24:54;74673.91;;;-142.05;65.37
32330;BME280;18807;52.434;13.238;2023-06-22T20:32:32;74851.41;;;-142.05;100.00
32330;BME280;18807;52.434;13.238;2023-06-22T20:40:07;74808.56;;;-142.05;100.00
32330;BME280;18807;52.434;13.238;2023-06-22T20:47:43;74877.94;;;-142.05;100.00
32330;BME280;18807;52.434;13.238;2023-06-22T20:55:18;74918.72;;;-142.05;100.00
32330;BME280;18807;52.434;13.238;2023-06-22T21:02:54;74869.78;;;-142.05;100.00
32330;BME280;18807;52.434;13.238;2023-06-22T21:10:32;74867.72;;;-142.05;100.00
32330;BME280;18807;52.434;13.238;2023-06-22T21:18:07;74908.53;;;-142.05;100.00
32330;BME280;18807;52.434;13.238;2023-06-22T21:25:41;74967.69;;;-142.05;100.00
32330;BME280;18807;52.434;13.238;2023-06-22T21:33:16;75114.59;;;-142.05;100.00
32330;BME280;18807;52.434;13.238;2023-06-22T21:40:51;75239.06;;;-142.05;100.00
32330;BME280;18807;52.434;13.238;2023-06-22T21:48:26;75169.69;;;-142.05;100.00
32330;BME280;18807;52.434;13.238;2023-06-22T21:56:00;75102.38;;;-142.05;100.00
32330;BME280;18807;52.434;13.238;2023-06-22T22:03:35;75053.41;;;-142.05;100.00
32330;BME280;18807;52.434;13.238;2023-06-22T22:11:10;75049.31;;;-142.05;100.00
32330;BME280;18807;52.434;13.238;2023-06-22T22:18:45;75028.91;;;-142.05;100.00
32330;BME280;18807;52.434;13.238;2023-06-22T22:26:38;75047.28;;;-142.05;100.00
32330;BME280;18807;52.434;13.238;2023-06-22T22:34:13;75047.28;;;-142.05;100.00
32330;BME280;18807;52.434;13.238;2023-06-22T22:41:47;75041.16;;;-142.05;100.00
32330;BME280;18807;52.434;13.238;2023-06-22T22:49:24;75033.00;;;-142.05;100.00
32330;BME280;18807;52.434;13.238;2023-06-22T22:56:58;75061.56;;;-142.05;100.00
32330;BME280;18807;52.434;13.238;2023-06-22T23:04:33;75041.16;;;-142.05;100.00
32330;BME280;18807;52.434;13.238;2023-06-22T23:12:08;75051.34;;;-142.05;100.00
32330;BME280;18807;52.434;13.238;2023-06-22T23:19:44;75014.63;;;-142.05;100.00
32330;BME280;18807;52.434;13.238;2023-06-22T23:27:19;74957.50;;;-142.05;100.00
32330;BME280;18807;52.434;13.238;2023-06-22T23:34:55;75035.03;;;-142.05;100.00
32330;BME280;18807;52.434;13.238;2023-06-22T23:42:29;75088.09;;;-142.05;100.00
32330;BME280;18807;52.434;13.238;2023-06-22T23:50:05;75079.91;;;-142.05;100.00
32330;BME280;18807;52.434;13.238;2023-06-22T23:57:39;75094.19;;;-142.05;100.00
